sensor_id;sensor_type;location;lat;lon;timestamp;P1;durP1;ratioP1;P2;durP2;ratioP2
46751;SDS011;32497;48.936;9.270;2023-06-19T00:00:56;7.35;;;5.22;;
46751;SDS011;32497;48.936;9.270;2023-06-19T00:05:57;9.52;;;5.88;;
46751;SDS011;32497;48.936;9.270;2023-06-19T00:10:59;6.95;;;5.60;;
46751;SDS011;32497;48.936;9.270;2023-06-19T00:16:00;7.15;;;5.47;;
46751;SDS011;32497;48.936;9.270;2023-06-19T00:21:02;7.85;;;5.32;;
46751;SDS011;32497;48.936;9.270;2023-06-19T00:26:04;6.43;;;5.18;;
46751;SDS011;32497;48.936;9.270;2023-06-19T00:31:05;7.38;;;5.65;;
46751;SDS011;32497;48.936;9.270;2023-06-19T00:36:08;6.78;;;5.13;;
46751;SDS011;32497;48.936;9.270;2023-06-19T00:41:13;6.88;;;5.25;;
46751;SDS011;32497;48.936;9.270;2023-06-19T00:46:16;8.00;;;5.45;;
46751;SDS011;32497;48.936;9.270;2023-06-19T00:51:17;6.53;;;5.55;;
46751;SDS011;32497;48.936;9.270;2023-06-19T00:56:20;6.30;;;4.93;;
46751;SDS011;32497;48.936;9.270;2023-06-19T01:01:21;6.43;;;5.20;;
46751;SDS011;32497;48.936;9.270;2023-06-19T01:06:23;6.50;;;5.60;;
46751;SDS011;32497;48.936;9.270;2023-06-19T01:11:30;6.38;;;5.50;;
46751;SDS011;32497;48.936;9.270;2023-06-19T01:16:34;7.18;;;5.55;;
46751;SDS011;32497;48.936;9.270;2023-06-19T01:21:36;7.78;;;5.18;;
46751;SDS011;32497;48.936;9.270;2023-06-19T01:26:39;6.10;;;4.80;;
46751;SDS011;32497;48.936;9.270;2023-06-19T01:31:43;7.20;;;4.63;;
46751;SDS011;32497;48.936;9.270;2023-06-19T01:36:57;5.05;;;4.10;;
46751;SDS011;32497;48.936;9.270;2023-06-19T01:42:00;5.05;;;3.50;;
46751;SDS011;32497;48.936;9.270;2023-06-19T01:47:07;4.80;;;3.70;;
46751;SDS011;32497;48.936;9.270;2023-06-19T01:52:09;6.55;;;3.42;;
46751;SDS011;32497;48.936;9.270;2023-06-19T01:57:12;3.75;;;3.15;;
46751;SDS011;32497;48.936;9.270;2023-06-19T02:02:13;4.68;;;3.10;;
46751;SDS011;32497;48.936;9.270;2023-06-19T02:07:14;6.47;;;3.20;;
46751;SDS011;32497;48.936;9.270;2023-06-19T02:12:17;7.95;;;3.00;;
46751;SDS011;32497;48.936;9.270;2023-06-19T02:17:18;4.22;;;3.00;;
46751;SDS011;32497;48.936;9.270;2023-06-19T02:22:19;5.07;;;3.00;;
46751;SDS011;32497;48.936;9.270;2023-06-19T02:27:22;3.70;;;2.90;;
46751;SDS011;32497;48.936;9.270;2023-06-19T02:32:23;3.50;;;2.72;;
46751;SDS011;32497;48.936;9.270;2023-06-19T02:37:24;4.03;;;3.05;;
46751;SDS011;32497;48.936;9.270;2023-06-19T02:42:27;3.50;;;2.80;;
46751;SDS011;32497;48.936;9.270;2023-06-19T02:47:28;4.63;;;3.38;;
46751;SDS011;32497;48.936;9.270;2023-06-19T02:52:29;3.70;;;3.08;;
46751;SDS011;32497;48.936;9.270;2023-06-19T02:57:33;3.63;;;2.83;;
46751;SDS011;32497;48.936;9.270;2023-06-19T03:02:34;4.32;;;3.20;;
46751;SDS011;32497;48.936;9.270;2023-06-19T03:07:35;4.47;;;3.42;;
46751;SDS011;32497;48.936;9.270;2023-06-19T03:12:38;4.07;;;3.30;;
46751;SDS011;32497;48.936;9.270;2023-06-19T03:17:39;4.93;;;3.38;;
46751;SDS011;32497;48.936;9.270;2023-06-19T03:22:44;5.68;;;3.42;;
46751;SDS011;32497;48.936;9.270;2023-06-19T03:27:49;5.15;;;3.28;;
46751;SDS011;32497;48.936;9.270;2023-06-19T03:32:50;4.72;;;3.40;;
46751;SDS011;32497;48.936;9.270;2023-06-19T03:38:09;4.68;;;3.50;;
46751;SDS011;32497;48.936;9.270;2023-06-19T03:43:12;4.15;;;3.38;;
46751;SDS011;32497;48.936;9.270;2023-06-19T03:48:13;4.32;;;3.20;;
46751;SDS011;32497;48.936;9.270;2023-06-19T03:53:15;4.45;;;3.10;;
46751;SDS011;32497;48.936;9.270;2023-06-19T03:58:18;5.57;;;2.97;;
46751;SDS011;32497;48.936;9.270;2023-06-19T04:03:19;4.68;;;3.10;;
46751;SDS011;32497;48.936;9.270;2023-06-19T04:08:20;3.83;;;2.75;;
46751;SDS011;32497;48.936;9.270;2023-06-19T04:13:22;3.38;;;2.60;;
46751;SDS011;32497;48.936;9.270;2023-06-19T04:18:25;3.83;;;2.78;;
46751;SDS011;32497;48.936;9.270;2023-06-19T04:23:26;2.92;;;2.45;;
46751;SDS011;32497;48.936;9.270;2023-06-19T04:28:29;2.97;;;2.40;;
46751;SDS011;32497;48.936;9.270;2023-06-19T04:33:30;3.63;;;2.92;;
46751;SDS011;32497;48.936;9.270;2023-06-19T04:38:31;3.03;;;2.60;;
46751;SDS011;32497;48.936;9.270;2023-06-19T04:43:33;3.13;;;2.65;;
46751;SDS011;32497;48.936;9.270;2023-06-19T04:48:34;3.10;;;2.70;;
46751;SDS011;32497;48.936;9.270;2023-06-19T04:53:37;2.60;;;1.90;;
46751;SDS011;32497;48.936;9.270;2023-06-19T04:58:39;2.20;;;1.70;;
46751;SDS011;32497;48.936;9.270;2023-06-19T05:03:42;2.30;;;1.70;;
46751;SDS011;32497;48.936;9.270;2023-06-19T05:08:45;2.05;;;1.60;;
46751;SDS011;32497;48.936;9.270;2023-06-19T05:13:47;2.80;;;1.95;;
46751;SDS011;32497;48.936;9.270;2023-06-19T05:18:48;2.95;;;1.63;;
46751;SDS011;32497;48.936;9.270;2023-06-19T05:23:49;2.28;;;1.80;;
46751;SDS011;32497;48.936;9.270;2023-06-19T05:28:52;2.67;;;1.50;;
46751;SDS011;32497;48.936;9.270;2023-06-19T05:33:53;2.85;;;1.70;;
46751;SDS011;32497;48.936;9.270;2023-06-19T05:38:54;1.92;;;1.60;;
46751;SDS011;32497;48.936;9.270;2023-06-19T05:43:56;1.80;;;1.45;;
46751;SDS011;32497;48.936;9.270;2023-06-19T05:48:57;2.08;;;1.65;;
46751;SDS011;32497;48.936;9.270;2023-06-19T05:53:58;3.35;;;1.98;;
46751;SDS011;32497;48.936;9.270;2023-06-19T05:59:01;2.20;;;1.85;;
46751;SDS011;32497;48.936;9.270;2023-06-19T06:04:03;2.15;;;1.80;;
46751;SDS011;32497;48.936;9.270;2023-06-19T06:09:04;2.53;;;1.90;;
46751;SDS011;32497;48.936;9.270;2023-06-19T06:14:06;3.70;;;2.20;;
46751;SDS011;32497;48.936;9.270;2023-06-19T06:19:08;3.03;;;2.00;;
46751;SDS011;32497;48.936;9.270;2023-06-19T06:24:09;3.05;;;2.00;;
46751;SDS011;32497;48.936;9.270;2023-06-19T06:29:11;2.25;;;1.92;;
46751;SDS011;32497;48.936;9.270;2023-06-19T06:34:12;2.10;;;1.90;;
46751;SDS011;32497;48.936;9.270;2023-06-19T06:39:13;3.95;;;2.10;;
46751;SDS011;32497;48.936;9.270;2023-06-19T06:44:16;3.17;;;2.00;;
46751;SDS011;32497;48.936;9.270;2023-06-19T06:49:17;4.47;;;2.25;;
46751;SDS011;32497;48.936;9.270;2023-06-19T06:54:18;2.40;;;2.20;;
46751;SDS011;32497;48.936;9.270;2023-06-19T06:59:20;2.55;;;2.08;;
46751;SDS011;32497;48.936;9.270;2023-06-19T07:04:22;3.83;;;2.40;;
46751;SDS011;32497;48.936;9.270;2023-06-19T07:09:23;2.63;;;2.42;;
46751;SDS011;32497;48.936;9.270;2023-06-19T07:14:25;2.58;;;2.10;;
46751;SDS011;32497;48.936;9.270;2023-06-19T07:19:27;2.72;;;2.28;;
46751;SDS011;32497;48.936;9.270;2023-06-19T07:24:28;3.45;;;2.00;;
46751;SDS011;32497;48.936;9.270;2023-06-19T07:29:30;3.17;;;2.33;;
46751;SDS011;32497;48.936;9.270;2023-06-19T07:34:31;4.47;;;2.45;;
46751;SDS011;32497;48.936;9.270;2023-06-19T07:39:32;2.17;;;1.90;;
46751;SDS011;32497;48.936;9.270;2023-06-19T07:44:35;2.20;;;2.00;;
46751;SDS011;32497;48.936;9.270;2023-06-19T07:49:36;2.45;;;2.00;;
46751;SDS011;32497;48.936;9.270;2023-06-19T07:54:47;2.20;;;2.00;;
46751;SDS011;32497;48.936;9.270;2023-06-19T07:59:52;2.03;;;1.73;;
46751;SDS011;32497;48.936;9.270;2023-06-19T08:04:54;2.03;;;1.70;;
46751;SDS011;32497;48.936;9.270;2023-06-19T08:09:55;2.20;;;1.70;;
46751;SDS011;32497;48.936;9.270;2023-06-19T08:14:57;2.78;;;1.80;;
46751;SDS011;32497;48.936;9.270;2023-06-19T08:19:58;2.30;;;2.10;;
46751;SDS011;32497;48.936;9.270;2023-06-19T08:24:59;3.15;;;1.90;;
46751;SDS011;32497;48.936;9.270;2023-06-19T08:30:02;1.95;;;1.83;;
46751;SDS011;32497;48.936;9.270;2023-06-19T08:35:04;2.35;;;1.88;;
46751;SDS011;32497;48.936;9.270;2023-06-19T08:40:05;2.70;;;2.50;;
46751;SDS011;32497;48.936;9.270;2023-06-19T08:45:09;2.67;;;2.47;;
46751;SDS011;32497;48.936;9.270;2023-06-19T08:50:12;3.00;;;2.80;;
46751;SDS011;32497;48.936;9.270;2023-06-19T08:55:13;2.70;;;2.50;;
46751;SDS011;32497;48.936;9.270;2023-06-19T09:00:23;2.90;;;2.65;;
46751;SDS011;32497;48.936;9.270;2023-06-19T09:05:25;2.30;;;1.88;;
46751;SDS011;32497;48.936;9.270;2023-06-19T09:10:26;3.55;;;2.88;;
46751;SDS011;32497;48.936;9.270;2023-06-19T09:15:30;3.50;;;2.85;;
46751;SDS011;32497;48.936;9.270;2023-06-19T09:20:33;2.97;;;2.72;;
46751;SDS011;32497;48.936;9.270;2023-06-19T09:25:44;4.05;;;2.55;;
46751;SDS011;32497;48.936;9.270;2023-06-19T09:30:57;4.15;;;2.90;;
46751;SDS011;32497;48.936;9.270;2023-06-19T09:36:00;3.45;;;3.15;;
46751;SDS011;32497;48.936;9.270;2023-06-19T09:41:02;3.00;;;2.80;;
46751;SDS011;32497;48.936;9.270;2023-06-19T09:46:06;3.60;;;3.30;;
46751;SDS011;32497;48.936;9.270;2023-06-19T09:51:09;3.10;;;2.90;;
46751;SDS011;32497;48.936;9.270;2023-06-19T09:56:13;4.90;;;2.88;;
46751;SDS011;32497;48.936;9.270;2023-06-19T10:01:16;3.20;;;2.80;;
46751;SDS011;32497;48.936;9.270;2023-06-19T10:06:18;3.65;;;2.58;;
46751;SDS011;32497;48.936;9.270;2023-06-19T10:11:22;3.15;;;2.63;;
46751;SDS011;32497;48.936;9.270;2023-06-19T10:16:25;3.30;;;2.33;;
46751;SDS011;32497;48.936;9.270;2023-06-19T10:21:26;2.65;;;2.45;;
46751;SDS011;32497;48.936;9.270;2023-06-19T10:26:30;2.72;;;2.38;;
46751;SDS011;32497;48.936;9.270;2023-06-19T10:31:34;3.55;;;2.50;;
46751;SDS011;32497;48.936;9.270;2023-06-19T10:36:35;3.65;;;2.40;;
46751;SDS011;32497;48.936;9.270;2023-06-19T10:41:39;2.67;;;2.47;;
46751;SDS011;32497;48.936;9.270;2023-06-19T10:46:42;3.92;;;2.83;;
46751;SDS011;32497;48.936;9.270;2023-06-19T10:51:43;3.00;;;2.20;;
46751;SDS011;32497;48.936;9.270;2023-06-19T10:56:44;3.67;;;2.53;;
46751;SDS011;32497;48.936;9.270;2023-06-19T11:01:48;2.58;;;2.05;;
46751;SDS011;32497;48.936;9.270;2023-06-19T11:06:50;3.05;;;2.83;;
46751;SDS011;32497;48.936;9.270;2023-06-19T11:11:51;3.13;;;2.70;;
46751;SDS011;32497;48.936;9.270;2023-06-19T11:16:53;3.83;;;2.70;;
46751;SDS011;32497;48.936;9.270;2023-06-19T11:21:54;3.90;;;3.40;;
46751;SDS011;32497;48.936;9.270;2023-06-19T11:26:57;3.30;;;3.00;;
46751;SDS011;32497;48.936;9.270;2023-06-19T11:32:07;5.47;;;2.80;;
46751;SDS011;32497;48.936;9.270;2023-06-19T11:37:43;2.55;;;2.35;;
46751;SDS011;32497;48.936;9.270;2023-06-19T11:54:40;2.50;;;2.30;;
46751;SDS011;32497;48.936;9.270;2023-06-19T11:59:41;3.40;;;3.10;;
46751;SDS011;32497;48.936;9.270;2023-06-19T12:04:59;4.38;;;3.20;;
46751;SDS011;32497;48.936;9.270;2023-06-19T12:10:00;3.40;;;3.17;;
46751;SDS011;32497;48.936;9.270;2023-06-19T12:20:55;3.65;;;3.28;;
46751;SDS011;32497;48.936;9.270;2023-06-19T12:31:30;2.70;;;2.50;;
46751;SDS011;32497;48.936;9.270;2023-06-19T12:36:33;3.60;;;3.30;;
46751;SDS011;32497;48.936;9.270;2023-06-19T12:41:40;4.05;;;3.70;;
46751;SDS011;32497;48.936;9.270;2023-06-19T12:46:44;2.78;;;2.58;;
46751;SDS011;32497;48.936;9.270;2023-06-19T12:52:06;3.70;;;3.33;;
46751;SDS011;32497;48.936;9.270;2023-06-19T12:57:26;3.90;;;3.50;;
46751;SDS011;32497;48.936;9.270;2023-06-19T13:02:36;3.67;;;3.38;;
46751;SDS011;32497;48.936;9.270;2023-06-19T13:07:46;4.38;;;3.97;;
46751;SDS011;32497;48.936;9.270;2023-06-19T13:18:56;3.70;;;3.40;;
46751;SDS011;32497;48.936;9.270;2023-06-19T13:23:59;4.00;;;3.70;;
46751;SDS011;32497;48.936;9.270;2023-06-19T13:29:07;3.80;;;3.50;;
46751;SDS011;32497;48.936;9.270;2023-06-19T13:34:14;3.65;;;3.28;;
46751;SDS011;32497;48.936;9.270;2023-06-19T13:39:26;4.72;;;4.00;;
46751;SDS011;32497;48.936;9.270;2023-06-19T13:47:20;4.57;;;4.28;;
46751;SDS011;32497;48.936;9.270;2023-06-19T13:50:59;4.57;;;4.18;;
46751;SDS011;32497;48.936;9.270;2023-06-19T13:56:08;5.90;;;3.92;;
46751;SDS011;32497;48.936;9.270;2023-06-19T14:01:10;4.03;;;3.70;;
46751;SDS011;32497;48.936;9.270;2023-06-19T14:06:11;3.70;;;3.40;;
46751;SDS011;32497;48.936;9.270;2023-06-19T14:11:14;4.20;;;3.80;;
46751;SDS011;32497;48.936;9.270;2023-06-19T14:16:24;4.18;;;3.67;;
46751;SDS011;32497;48.936;9.270;2023-06-19T14:21:40;3.85;;;3.40;;
46751;SDS011;32497;48.936;9.270;2023-06-19T14:26:45;3.63;;;3.33;;
46751;SDS011;32497;48.936;9.270;2023-06-19T14:31:52;3.78;;;3.47;;
46751;SDS011;32497;48.936;9.270;2023-06-19T14:37:00;4.07;;;3.67;;
46751;SDS011;32497;48.936;9.270;2023-06-19T14:42:11;4.10;;;3.80;;
46751;SDS011;32497;48.936;9.270;2023-06-19T14:47:21;3.85;;;3.55;;
46751;SDS011;32497;48.936;9.270;2023-06-19T14:52:31;3.70;;;3.35;;
46751;SDS011;32497;48.936;9.270;2023-06-19T14:57:43;3.58;;;3.28;;
46751;SDS011;32497;48.936;9.270;2023-06-19T15:02:53;3.60;;;3.30;;
46751;SDS011;32497;48.936;9.270;2023-06-19T15:19:31;3.85;;;3.50;;
46751;SDS011;32497;48.936;9.270;2023-06-19T15:36:08;3.70;;;3.25;;
46751;SDS011;32497;48.936;9.270;2023-06-19T15:41:13;3.50;;;3.20;;
46751;SDS011;32497;48.936;9.270;2023-06-19T15:46:24;3.42;;;3.13;;
46751;SDS011;32497;48.936;9.270;2023-06-19T15:51:25;4.03;;;3.60;;
46751;SDS011;32497;48.936;9.270;2023-06-19T15:56:32;3.40;;;3.10;;
46751;SDS011;32497;48.936;9.270;2023-06-19T16:01:38;3.08;;;2.88;;
46751;SDS011;32497;48.936;9.270;2023-06-19T16:06:48;3.47;;;3.17;;
46751;SDS011;32497;48.936;9.270;2023-06-19T16:11:58;4.25;;;3.40;;
46751;SDS011;32497;48.936;9.270;2023-06-19T16:17:16;3.33;;;3.00;;
46751;SDS011;32497;48.936;9.270;2023-06-19T16:28:13;4.53;;;3.20;;
46751;SDS011;32497;48.936;9.270;2023-06-19T16:38:41;3.60;;;3.28;;
46751;SDS011;32497;48.936;9.270;2023-06-19T16:43:48;4.25;;;3.45;;
46751;SDS011;32497;48.936;9.270;2023-06-19T17:00:25;3.28;;;2.88;;
46751;SDS011;32497;48.936;9.270;2023-06-19T17:11:00;4.47;;;3.00;;
46751;SDS011;32497;48.936;9.270;2023-06-19T17:21:38;3.80;;;3.17;;
46751;SDS011;32497;48.936;9.270;2023-06-19T17:32:48;3.85;;;3.38;;
46751;SDS011;32497;48.936;9.270;2023-06-19T17:37:49;5.25;;;3.90;;
46751;SDS011;32497;48.936;9.270;2023-06-19T17:42:50;4.43;;;3.47;;
46751;SDS011;32497;48.936;9.270;2023-06-19T17:47:53;4.97;;;3.90;;
46751;SDS011;32497;48.936;9.270;2023-06-19T17:53:06;6.80;;;4.25;;
46751;SDS011;32497;48.936;9.270;2023-06-19T17:58:07;5.95;;;4.65;;
46751;SDS011;32497;48.936;9.270;2023-06-19T18:03:16;6.72;;;4.28;;
46751;SDS011;32497;48.936;9.270;2023-06-19T18:08:25;6.13;;;3.80;;
46751;SDS011;32497;48.936;9.270;2023-06-19T18:18:46;6.72;;;3.80;;
46751;SDS011;32497;48.936;9.270;2023-06-19T18:23:48;4.50;;;3.50;;
46751;SDS011;32497;48.936;9.270;2023-06-19T18:28:52;4.10;;;3.38;;
46751;SDS011;32497;48.936;9.270;2023-06-19T18:39:53;5.57;;;4.00;;
46751;SDS011;32497;48.936;9.270;2023-06-19T18:50:20;7.22;;;3.72;;
46751;SDS011;32497;48.936;9.270;2023-06-19T18:55:22;5.25;;;4.03;;
46751;SDS011;32497;48.936;9.270;2023-06-19T19:00:30;5.18;;;3.83;;
46751;SDS011;32497;48.936;9.270;2023-06-19T19:05:33;4.43;;;4.03;;
46751;SDS011;32497;48.936;9.270;2023-06-19T19:10:49;4.10;;;3.55;;
46751;SDS011;32497;48.936;9.270;2023-06-19T19:15:50;4.80;;;3.88;;
46751;SDS011;32497;48.936;9.270;2023-06-19T19:20:51;4.40;;;3.92;;
46751;SDS011;32497;48.936;9.270;2023-06-19T19:26:03;7.35;;;3.83;;
46751;SDS011;32497;48.936;9.270;2023-06-19T19:31:05;5.05;;;4.00;;
46751;SDS011;32497;48.936;9.270;2023-06-19T19:36:06;6.20;;;5.32;;
46751;SDS011;32497;48.936;9.270;2023-06-19T19:41:32;4.57;;;3.92;;
46751;SDS011;32497;48.936;9.270;2023-06-19T19:46:37;5.07;;;3.83;;
46751;SDS011;32497;48.936;9.270;2023-06-19T19:51:41;4.65;;;3.78;;
46751;SDS011;32497;48.936;9.270;2023-06-19T19:56:44;4.72;;;3.58;;
46751;SDS011;32497;48.936;9.270;2023-06-19T20:12:50;5.50;;;4.07;;
46751;SDS011;32497;48.936;9.270;2023-06-19T20:18:09;12.30;;;6.00;;
46751;SDS011;32497;48.936;9.270;2023-06-19T20:23:10;5.25;;;3.80;;
46751;SDS011;32497;48.936;9.270;2023-06-19T20:28:12;5.25;;;4.10;;
46751;SDS011;32497;48.936;9.270;2023-06-19T20:33:14;5.03;;;3.90;;
46751;SDS011;32497;48.936;9.270;2023-06-19T20:38:15;6.70;;;4.45;;
46751;SDS011;32497;48.936;9.270;2023-06-19T20:43:17;7.45;;;4.20;;
46751;SDS011;32497;48.936;9.270;2023-06-19T20:48:18;4.25;;;3.60;;
46751;SDS011;32497;48.936;9.270;2023-06-19T20:53:20;6.07;;;4.13;;
46751;SDS011;32497;48.936;9.270;2023-06-19T20:58:22;4.88;;;3.95;;
46751;SDS011;32497;48.936;9.270;2023-06-19T21:03:23;5.30;;;4.25;;
46751;SDS011;32497;48.936;9.270;2023-06-19T21:08:24;5.20;;;4.10;;
46751;SDS011;32497;48.936;9.270;2023-06-19T21:13:27;5.32;;;4.13;;
46751;SDS011;32497;48.936;9.270;2023-06-19T21:18:28;5.55;;;4.03;;
46751;SDS011;32497;48.936;9.270;2023-06-19T21:23:29;5.85;;;4.60;;
46751;SDS011;32497;48.936;9.270;2023-06-19T21:28:31;6.25;;;4.28;;
46751;SDS011;32497;48.936;9.270;2023-06-19T21:33:32;5.20;;;4.28;;
46751;SDS011;32497;48.936;9.270;2023-06-19T21:38:34;5.78;;;4.50;;
46751;SDS011;32497;48.936;9.270;2023-06-19T21:43:36;7.05;;;4.50;;
46751;SDS011;32497;48.936;9.270;2023-06-19T21:48:37;5.63;;;4.40;;
46751;SDS011;32497;48.936;9.270;2023-06-19T21:53:38;6.10;;;4.43;;
46751;SDS011;32497;48.936;9.270;2023-06-19T21:58:41;6.30;;;4.05;;
46751;SDS011;32497;48.936;9.270;2023-06-19T22:03:42;5.35;;;4.35;;
46751;SDS011;32497;48.936;9.270;2023-06-19T22:08:43;5.78;;;4.90;;
46751;SDS011;32497;48.936;9.270;2023-06-19T22:13:45;6.22;;;4.70;;
46751;SDS011;32497;48.936;9.270;2023-06-19T22:18:46;5.03;;;4.53;;
46751;SDS011;32497;48.936;9.270;2023-06-19T22:23:47;5.53;;;4.40;;
46751;SDS011;32497;48.936;9.270;2023-06-19T22:28:50;5.50;;;4.70;;
46751;SDS011;32497;48.936;9.270;2023-06-19T22:33:51;5.47;;;4.00;;
46751;SDS011;32497;48.936;9.270;2023-06-19T22:38:52;6.78;;;4.75;;
46751;SDS011;32497;48.936;9.270;2023-06-19T22:43:54;6.55;;;4.82;;
46751;SDS011;32497;48.936;9.270;2023-06-19T22:48:56;5.30;;;4.80;;
46751;SDS011;32497;48.936;9.270;2023-06-19T22:53:57;5.93;;;5.00;;
46751;SDS011;32497;48.936;9.270;2023-06-19T22:58:59;6.35;;;5.10;;
46751;SDS011;32497;48.936;9.270;2023-06-19T23:04:00;5.10;;;4.40;;
46751;SDS011;32497;48.936;9.270;2023-06-19T23:09:01;6.35;;;5.00;;
46751;SDS011;32497;48.936;9.270;2023-06-19T23:14:04;5.60;;;4.60;;
46751;SDS011;32497;48.936;9.270;2023-06-19T23:19:05;6.53;;;5.05;;
46751;SDS011;32497;48.936;9.270;2023-06-19T23:24:06;5.70;;;4.72;;
46751;SDS011;32497;48.936;9.270;2023-06-19T23:29:09;6.55;;;4.82;;
46751;SDS011;32497;48.936;9.270;2023-06-19T23:34:10;5.47;;;4.60;;
46751;SDS011;32497;48.936;9.270;2023-06-19T23:39:11;6.65;;;4.97;;
46751;SDS011;32497;48.936;9.270;2023-06-19T23:44:13;6.45;;;4.82;;
46751;SDS011;32497;48.936;9.270;2023-06-19T23:49:14;6.68;;;5.13;;
46751;SDS011;32497;48.936;9.270;2023-06-19T23:54:15;5.85;;;4.65;;
46751;SDS011;32497;48.936;9.270;2023-06-19T23:59:18;7.38;;;4.82;;
